Adams Mills, Ohio
Current Conditions -  °F | °C
As of 3:07 PM on Thursday 29 Jan 2015 (Local Time) from KZZV Reporting Station
Overcast Overcast  
Wind Chill: 32°   Ceiling: 2600
Heat Index: 38°   Visibility: 10mi
Dew Point: 31°   Wind: 8mph
Humidity: 76%   Direction: 190°S
Pressure: 29.79"   Gusts: NA
Location:  40.1482°N, 82.0354°W
Report Text: KZZV 292007Z AUTO 19007KT 10SM BKN026 OVC031 03/M01 A2979 RMK AO2 T00331006
Loading
Personal Weather Stations






























Interactive Weather Map New forecast layout! Learn more

10-Day Weather Forecast

Advertisements
Track Severe Weather on mobile